sensor_id;sensor_type;location;lat;lon;timestamp;P1;durP1;ratioP1;P2;durP2;ratioP2
24137;SDS011;17947;50.672;6.076;2023-02-10T00:01:28;6.03;;;4.38;;
24137;SDS011;17947;50.672;6.076;2023-02-10T00:03:54;5.78;;;4.22;;
24137;SDS011;17947;50.672;6.076;2023-02-10T00:06:22;4.72;;;4.22;;
24137;SDS011;17947;50.672;6.076;2023-02-10T00:08:49;5.22;;;4.20;;
24137;SDS011;17947;50.672;6.076;2023-02-10T00:11:15;6.05;;;4.50;;
24137;SDS011;17947;50.672;6.076;2023-02-10T00:13:42;6.00;;;4.10;;
24137;SDS011;17947;50.672;6.076;2023-02-10T00:16:10;5.25;;;4.00;;
24137;SDS011;17947;50.672;6.076;2023-02-10T00:18:36;6.20;;;3.67;;
24137;SDS011;17947;50.672;6.076;2023-02-10T00:21:06;4.80;;;3.90;;
24137;SDS011;17947;50.672;6.076;2023-02-10T00:23:33;5.88;;;4.13;;
24137;SDS011;17947;50.672;6.076;2023-02-10T00:26:03;8.40;;;4.50;;
24137;SDS011;17947;50.672;6.076;2023-02-10T00:28:29;5.43;;;4.00;;
24137;SDS011;17947;50.672;6.076;2023-02-10T00:30:55;3.97;;;3.58;;
24137;SDS011;17947;50.672;6.076;2023-02-10T00:33:21;5.65;;;3.97;;
24137;SDS011;17947;50.672;6.076;2023-02-10T00:35:47;6.47;;;4.28;;
24137;SDS011;17947;50.672;6.076;2023-02-10T00:38:14;6.53;;;4.40;;
24137;SDS011;17947;50.672;6.076;2023-02-10T00:40:40;5.20;;;4.22;;
24137;SDS011;17947;50.672;6.076;2023-02-10T00:43:06;5.00;;;4.03;;
24137;SDS011;17947;50.672;6.076;2023-02-10T00:45:32;5.10;;;3.85;;
24137;SDS011;17947;50.672;6.076;2023-02-10T00:47:58;6.32;;;4.03;;
24137;SDS011;17947;50.672;6.076;2023-02-10T00:50:24;4.80;;;3.67;;
24137;SDS011;17947;50.672;6.076;2023-02-10T00:52:50;6.55;;;4.43;;
24137;SDS011;17947;50.672;6.076;2023-02-10T00:55:16;5.72;;;3.88;;
24137;SDS011;17947;50.672;6.076;2023-02-10T00:57:42;4.78;;;3.65;;
24137;SDS011;17947;50.672;6.076;2023-02-10T01:00:08;6.53;;;4.07;;
24137;SDS011;17947;50.672;6.076;2023-02-10T01:02:34;5.40;;;3.95;;
24137;SDS011;17947;50.672;6.076;2023-02-10T01:05:00;4.55;;;3.53;;
24137;SDS011;17947;50.672;6.076;2023-02-10T01:07:28;7.18;;;4.13;;
24137;SDS011;17947;50.672;6.076;2023-02-10T01:09:54;8.15;;;3.67;;
24137;SDS011;17947;50.672;6.076;2023-02-10T01:12:20;5.38;;;3.90;;
24137;SDS011;17947;50.672;6.076;2023-02-10T01:14:46;5.20;;;3.80;;
24137;SDS011;17947;50.672;6.076;2023-02-10T01:17:12;5.65;;;3.58;;
24137;SDS011;17947;50.672;6.076;2023-02-10T01:19:38;5.15;;;4.28;;
24137;SDS011;17947;50.672;6.076;2023-02-10T01:22:04;4.75;;;3.78;;
24137;SDS011;17947;50.672;6.076;2023-02-10T01:24:30;6.00;;;3.88;;
24137;SDS011;17947;50.672;6.076;2023-02-10T01:26:57;4.78;;;3.70;;
24137;SDS011;17947;50.672;6.076;2023-02-10T01:29:23;5.60;;;3.65;;
24137;SDS011;17947;50.672;6.076;2023-02-10T01:31:49;4.80;;;3.35;;
24137;SDS011;17947;50.672;6.076;2023-02-10T01:34:15;5.22;;;4.03;;
24137;SDS011;17947;50.672;6.076;2023-02-10T01:36:41;5.65;;;3.67;;
24137;SDS011;17947;50.672;6.076;2023-02-10T01:39:07;5.35;;;3.85;;
24137;SDS011;17947;50.672;6.076;2023-02-10T01:41:33;5.28;;;3.42;;
24137;SDS011;17947;50.672;6.076;2023-02-10T01:44:01;5.43;;;3.25;;
24137;SDS011;17947;50.672;6.076;2023-02-10T01:46:29;5.35;;;3.50;;
24137;SDS011;17947;50.672;6.076;2023-02-10T01:48:55;4.80;;;3.97;;
24137;SDS011;17947;50.672;6.076;2023-02-10T01:51:23;5.03;;;3.58;;
24137;SDS011;17947;50.672;6.076;2023-02-10T01:53:51;4.72;;;3.88;;
24137;SDS011;17947;50.672;6.076;2023-02-10T01:56:17;5.45;;;3.92;;
24137;SDS011;17947;50.672;6.076;2023-02-10T01:58:43;4.90;;;3.40;;
24137;SDS011;17947;50.672;6.076;2023-02-10T02:01:10;4.30;;;3.30;;
24137;SDS011;17947;50.672;6.076;2023-02-10T02:03:36;5.22;;;3.60;;
24137;SDS011;17947;50.672;6.076;2023-02-10T02:06:06;6.00;;;3.63;;
24137;SDS011;17947;50.672;6.076;2023-02-10T02:08:32;5.70;;;3.95;;
24137;SDS011;17947;50.672;6.076;2023-02-10T02:13:47;4.50;;;3.53;;
24137;SDS011;17947;50.672;6.076;2023-02-10T02:21:35;5.43;;;3.80;;
24137;SDS011;17947;50.672;6.076;2023-02-10T02:24:08;4.38;;;3.22;;
24137;SDS011;17947;50.672;6.076;2023-02-10T02:26:49;5.32;;;3.80;;
24137;SDS011;17947;50.672;6.076;2023-02-10T02:34:52;4.88;;;3.70;;
24137;SDS011;17947;50.672;6.076;2023-02-10T02:37:21;5.13;;;3.60;;
24137;SDS011;17947;50.672;6.076;2023-02-10T02:39:51;4.90;;;3.58;;
24137;SDS011;17947;50.672;6.076;2023-02-10T02:44:44;5.75;;;3.45;;
24137;SDS011;17947;50.672;6.076;2023-02-10T02:52:30;5.18;;;3.53;;
24137;SDS011;17947;50.672;6.076;2023-02-10T02:54:58;4.63;;;3.70;;
24137;SDS011;17947;50.672;6.076;2023-02-10T03:00:18;4.65;;;3.72;;
24137;SDS011;17947;50.672;6.076;2023-02-10T03:02:46;6.13;;;3.80;;
24137;SDS011;17947;50.672;6.076;2023-02-10T03:05:19;7.45;;;3.80;;
24137;SDS011;17947;50.672;6.076;2023-02-10T03:07:47;5.53;;;3.85;;
24137;SDS011;17947;50.672;6.076;2023-02-10T03:10:13;4.25;;;3.50;;
24137;SDS011;17947;50.672;6.076;2023-02-10T03:12:39;5.97;;;3.90;;
24137;SDS011;17947;50.672;6.076;2023-02-10T03:15:05;6.13;;;4.10;;
24137;SDS011;17947;50.672;6.076;2023-02-10T03:17:32;4.72;;;3.70;;
24137;SDS011;17947;50.672;6.076;2023-02-10T03:19:58;5.38;;;3.90;;
24137;SDS011;17947;50.672;6.076;2023-02-10T03:22:24;5.65;;;3.42;;
24137;SDS011;17947;50.672;6.076;2023-02-10T03:24:50;6.13;;;3.90;;
24137;SDS011;17947;50.672;6.076;2023-02-10T03:27:15;6.22;;;3.72;;
24137;SDS011;17947;50.672;6.076;2023-02-10T03:29:42;5.93;;;3.78;;
24137;SDS011;17947;50.672;6.076;2023-02-10T03:32:08;5.95;;;3.65;;
24137;SDS011;17947;50.672;6.076;2023-02-10T03:34:34;5.30;;;4.20;;
24137;SDS011;17947;50.672;6.076;2023-02-10T03:37:00;5.15;;;3.65;;
24137;SDS011;17947;50.672;6.076;2023-02-10T03:39:26;6.47;;;3.80;;
24137;SDS011;17947;50.672;6.076;2023-02-10T03:41:52;6.18;;;4.10;;
24137;SDS011;17947;50.672;6.076;2023-02-10T03:44:19;5.97;;;3.85;;
24137;SDS011;17947;50.672;6.076;2023-02-10T03:46:45;6.05;;;3.92;;
24137;SDS011;17947;50.672;6.076;2023-02-10T03:49:11;6.00;;;3.55;;
24137;SDS011;17947;50.672;6.076;2023-02-10T03:51:37;4.75;;;3.80;;
24137;SDS011;17947;50.672;6.076;2023-02-10T03:54:03;6.50;;;4.00;;
24137;SDS011;17947;50.672;6.076;2023-02-10T03:56:29;5.70;;;3.70;;
24137;SDS011;17947;50.672;6.076;2023-02-10T03:58:55;5.88;;;3.78;;
24137;SDS011;17947;50.672;6.076;2023-02-10T04:01:21;6.40;;;3.95;;
24137;SDS011;17947;50.672;6.076;2023-02-10T04:03:47;5.78;;;3.75;;
24137;SDS011;17947;50.672;6.076;2023-02-10T04:06:13;5.38;;;3.60;;
24137;SDS011;17947;50.672;6.076;2023-02-10T04:08:39;5.78;;;3.75;;
24137;SDS011;17947;50.672;6.076;2023-02-10T04:11:05;5.03;;;3.80;;
24137;SDS011;17947;50.672;6.076;2023-02-10T04:13:34;4.20;;;3.58;;
24137;SDS011;17947;50.672;6.076;2023-02-10T04:16:06;5.35;;;3.47;;
24137;SDS011;17947;50.672;6.076;2023-02-10T04:18:33;5.82;;;3.78;;
24137;SDS011;17947;50.672;6.076;2023-02-10T04:21:00;6.10;;;3.70;;
24137;SDS011;17947;50.672;6.076;2023-02-10T04:23:27;4.85;;;3.35;;
24137;SDS011;17947;50.672;6.076;2023-02-10T04:25:53;4.88;;;3.55;;
24137;SDS011;17947;50.672;6.076;2023-02-10T04:28:20;6.70;;;3.97;;
24137;SDS011;17947;50.672;6.076;2023-02-10T04:30:46;4.60;;;3.28;;
24137;SDS011;17947;50.672;6.076;2023-02-10T04:33:15;5.68;;;3.63;;
24137;SDS011;17947;50.672;6.076;2023-02-10T04:35:42;5.25;;;3.70;;
24137;SDS011;17947;50.672;6.076;2023-02-10T04:38:09;5.43;;;4.10;;
24137;SDS011;17947;50.672;6.076;2023-02-10T04:40:35;5.07;;;3.72;;
24137;SDS011;17947;50.672;6.076;2023-02-10T04:43:01;4.55;;;3.55;;
24137;SDS011;17947;50.672;6.076;2023-02-10T04:45:27;5.22;;;3.17;;
24137;SDS011;17947;50.672;6.076;2023-02-10T04:47:53;4.70;;;3.53;;
24137;SDS011;17947;50.672;6.076;2023-02-10T04:50:19;6.90;;;3.60;;
24137;SDS011;17947;50.672;6.076;2023-02-10T04:52:45;6.97;;;3.72;;
24137;SDS011;17947;50.672;6.076;2023-02-10T04:55:11;6.60;;;3.85;;
24137;SDS011;17947;50.672;6.076;2023-02-10T04:57:37;6.75;;;3.80;;
24137;SDS011;17947;50.672;6.076;2023-02-10T05:00:03;4.90;;;3.80;;
24137;SDS011;17947;50.672;6.076;2023-02-10T05:02:30;5.15;;;3.90;;
24137;SDS011;17947;50.672;6.076;2023-02-10T05:04:56;6.18;;;3.92;;
24137;SDS011;17947;50.672;6.076;2023-02-10T05:07:22;7.00;;;4.07;;
24137;SDS011;17947;50.672;6.076;2023-02-10T05:09:48;5.20;;;3.80;;
24137;SDS011;17947;50.672;6.076;2023-02-10T05:12:14;5.22;;;3.63;;
24137;SDS011;17947;50.672;6.076;2023-02-10T05:14:40;5.32;;;3.75;;
24137;SDS011;17947;50.672;6.076;2023-02-10T05:17:06;4.93;;;3.70;;
24137;SDS011;17947;50.672;6.076;2023-02-10T05:19:32;4.70;;;3.28;;
24137;SDS011;17947;50.672;6.076;2023-02-10T05:21:58;6.30;;;4.10;;
24137;SDS011;17947;50.672;6.076;2023-02-10T05:24:24;6.00;;;4.18;;
24137;SDS011;17947;50.672;6.076;2023-02-10T05:26:50;5.50;;;3.92;;
24137;SDS011;17947;50.672;6.076;2023-02-10T05:29:16;5.40;;;3.90;;
24137;SDS011;17947;50.672;6.076;2023-02-10T05:31:42;5.40;;;3.53;;
24137;SDS011;17947;50.672;6.076;2023-02-10T05:34:08;6.57;;;4.20;;
24137;SDS011;17947;50.672;6.076;2023-02-10T05:36:34;6.85;;;4.05;;
24137;SDS011;17947;50.672;6.076;2023-02-10T05:39:00;6.53;;;3.50;;
24137;SDS011;17947;50.672;6.076;2023-02-10T05:41:44;7.15;;;4.50;;
24137;SDS011;17947;50.672;6.076;2023-02-10T05:44:10;8.80;;;4.38;;
24137;SDS011;17947;50.672;6.076;2023-02-10T05:46:36;7.03;;;3.97;;
24137;SDS011;17947;50.672;6.076;2023-02-10T05:49:02;5.55;;;3.85;;
24137;SDS011;17947;50.672;6.076;2023-02-10T05:51:28;5.60;;;3.85;;
24137;SDS011;17947;50.672;6.076;2023-02-10T05:53:54;5.13;;;3.70;;
24137;SDS011;17947;50.672;6.076;2023-02-10T05:56:20;5.70;;;3.72;;
24137;SDS011;17947;50.672;6.076;2023-02-10T05:58:46;5.03;;;3.80;;
24137;SDS011;17947;50.672;6.076;2023-02-10T06:01:12;6.93;;;3.80;;
24137;SDS011;17947;50.672;6.076;2023-02-10T06:03:38;6.15;;;4.07;;
24137;SDS011;17947;50.672;6.076;2023-02-10T06:06:04;4.95;;;3.70;;
24137;SDS011;17947;50.672;6.076;2023-02-10T06:08:31;6.30;;;4.00;;
24137;SDS011;17947;50.672;6.076;2023-02-10T06:10:57;7.05;;;3.85;;
24137;SDS011;17947;50.672;6.076;2023-02-10T06:13:23;6.40;;;4.03;;
24137;SDS011;17947;50.672;6.076;2023-02-10T06:15:49;5.63;;;3.88;;
24137;SDS011;17947;50.672;6.076;2023-02-10T06:18:15;7.03;;;4.10;;
24137;SDS011;17947;50.672;6.076;2023-02-10T06:20:41;8.63;;;5.00;;
24137;SDS011;17947;50.672;6.076;2023-02-10T06:23:07;8.68;;;5.55;;
24137;SDS011;17947;50.672;6.076;2023-02-10T06:25:33;10.05;;;5.07;;
24137;SDS011;17947;50.672;6.076;2023-02-10T06:28:01;7.55;;;5.03;;
24137;SDS011;17947;50.672;6.076;2023-02-10T06:30:27;9.15;;;5.03;;
24137;SDS011;17947;50.672;6.076;2023-02-10T06:32:53;9.63;;;5.30;;
24137;SDS011;17947;50.672;6.076;2023-02-10T06:35:19;10.25;;;5.05;;
24137;SDS011;17947;50.672;6.076;2023-02-10T06:37:45;9.65;;;4.88;;
24137;SDS011;17947;50.672;6.076;2023-02-10T06:40:11;9.80;;;5.13;;
24137;SDS011;17947;50.672;6.076;2023-02-10T06:42:37;8.15;;;4.35;;
24137;SDS011;17947;50.672;6.076;2023-02-10T06:45:03;7.18;;;4.88;;
24137;SDS011;17947;50.672;6.076;2023-02-10T06:47:30;9.38;;;4.95;;
24137;SDS011;17947;50.672;6.076;2023-02-10T06:49:56;8.02;;;4.47;;
24137;SDS011;17947;50.672;6.076;2023-02-10T06:52:22;7.88;;;4.68;;
24137;SDS011;17947;50.672;6.076;2023-02-10T06:54:49;9.02;;;5.10;;
24137;SDS011;17947;50.672;6.076;2023-02-10T06:57:15;6.90;;;4.50;;
24137;SDS011;17947;50.672;6.076;2023-02-10T06:59:41;7.10;;;4.82;;
24137;SDS011;17947;50.672;6.076;2023-02-10T07:02:08;6.07;;;4.18;;
24137;SDS011;17947;50.672;6.076;2023-02-10T07:04:34;5.95;;;4.05;;
24137;SDS011;17947;50.672;6.076;2023-02-10T07:07:00;6.25;;;4.60;;
24137;SDS011;17947;50.672;6.076;2023-02-10T07:09:26;10.52;;;4.50;;
24137;SDS011;17947;50.672;6.076;2023-02-10T07:11:52;6.95;;;4.38;;
24137;SDS011;17947;50.672;6.076;2023-02-10T07:14:18;7.30;;;4.35;;
24137;SDS011;17947;50.672;6.076;2023-02-10T07:16:44;7.63;;;4.50;;
24137;SDS011;17947;50.672;6.076;2023-02-10T07:19:11;6.13;;;4.35;;
24137;SDS011;17947;50.672;6.076;2023-02-10T07:21:37;5.85;;;3.97;;
24137;SDS011;17947;50.672;6.076;2023-02-10T07:24:03;6.13;;;4.32;;
24137;SDS011;17947;50.672;6.076;2023-02-10T07:26:30;7.25;;;4.03;;
24137;SDS011;17947;50.672;6.076;2023-02-10T07:28:56;7.13;;;4.15;;
24137;SDS011;17947;50.672;6.076;2023-02-10T07:31:22;8.02;;;4.75;;
24137;SDS011;17947;50.672;6.076;2023-02-10T07:33:49;5.95;;;4.25;;
24137;SDS011;17947;50.672;6.076;2023-02-10T07:36:15;7.88;;;4.80;;
24137;SDS011;17947;50.672;6.076;2023-02-10T07:38:41;6.13;;;4.20;;
24137;SDS011;17947;50.672;6.076;2023-02-10T07:41:07;5.35;;;4.00;;
24137;SDS011;17947;50.672;6.076;2023-02-10T07:43:33;5.47;;;4.30;;
24137;SDS011;17947;50.672;6.076;2023-02-10T07:46:00;6.28;;;4.22;;
24137;SDS011;17947;50.672;6.076;2023-02-10T07:48:26;5.43;;;3.85;;
24137;SDS011;17947;50.672;6.076;2023-02-10T07:50:52;6.18;;;4.13;;
24137;SDS011;17947;50.672;6.076;2023-02-10T07:53:19;7.70;;;4.30;;
24137;SDS011;17947;50.672;6.076;2023-02-10T07:55:45;7.72;;;4.22;;
24137;SDS011;17947;50.672;6.076;2023-02-10T07:58:11;5.32;;;3.80;;
24137;SDS011;17947;50.672;6.076;2023-02-10T08:00:37;6.72;;;4.15;;
24137;SDS011;17947;50.672;6.076;2023-02-10T08:03:03;6.07;;;4.18;;
24137;SDS011;17947;50.672;6.076;2023-02-10T08:05:30;5.88;;;3.80;;
24137;SDS011;17947;50.672;6.076;2023-02-10T08:07:56;5.63;;;3.97;;
24137;SDS011;17947;50.672;6.076;2023-02-10T08:10:22;6.43;;;3.83;;
24137;SDS011;17947;50.672;6.076;2023-02-10T08:12:48;5.70;;;3.72;;
24137;SDS011;17947;50.672;6.076;2023-02-10T08:15:14;6.22;;;3.90;;
24137;SDS011;17947;50.672;6.076;2023-02-10T08:17:43;5.68;;;3.65;;
24137;SDS011;17947;50.672;6.076;2023-02-10T08:20:09;4.45;;;3.53;;
24137;SDS011;17947;50.672;6.076;2023-02-10T08:22:35;7.53;;;3.75;;
24137;SDS011;17947;50.672;6.076;2023-02-10T08:25:02;4.82;;;3.33;;
24137;SDS011;17947;50.672;6.076;2023-02-10T08:27:29;4.70;;;3.33;;
24137;SDS011;17947;50.672;6.076;2023-02-10T08:29:55;4.70;;;3.47;;
24137;SDS011;17947;50.672;6.076;2023-02-10T08:32:21;4.57;;;3.63;;
24137;SDS011;17947;50.672;6.076;2023-02-10T08:34:48;5.43;;;3.70;;
24137;SDS011;17947;50.672;6.076;2023-02-10T08:37:14;5.53;;;3.63;;
24137;SDS011;17947;50.672;6.076;2023-02-10T08:39:41;6.20;;;3.65;;
24137;SDS011;17947;50.672;6.076;2023-02-10T08:42:07;4.55;;;3.38;;
24137;SDS011;17947;50.672;6.076;2023-02-10T08:44:33;4.25;;;3.15;;
24137;SDS011;17947;50.672;6.076;2023-02-10T08:46:59;5.05;;;3.45;;
24137;SDS011;17947;50.672;6.076;2023-02-10T08:49:25;5.45;;;3.83;;
24137;SDS011;17947;50.672;6.076;2023-02-10T08:51:52;5.57;;;3.58;;
24137;SDS011;17947;50.672;6.076;2023-02-10T08:54:18;5.00;;;3.13;;
24137;SDS011;17947;50.672;6.076;2023-02-10T08:56:44;4.47;;;3.40;;
24137;SDS011;17947;50.672;6.076;2023-02-10T08:59:10;4.65;;;3.30;;
24137;SDS011;17947;50.672;6.076;2023-02-10T09:01:36;5.03;;;3.50;;
24137;SDS011;17947;50.672;6.076;2023-02-10T09:04:03;5.18;;;3.40;;
24137;SDS011;17947;50.672;6.076;2023-02-10T09:06:30;5.90;;;3.63;;
24137;SDS011;17947;50.672;6.076;2023-02-10T09:08:58;6.25;;;3.60;;
24137;SDS011;17947;50.672;6.076;2023-02-10T09:11:25;5.00;;;3.63;;
24137;SDS011;17947;50.672;6.076;2023-02-10T09:13:51;5.78;;;3.63;;
24137;SDS011;17947;50.672;6.076;2023-02-10T09:16:18;4.47;;;3.38;;
24137;SDS011;17947;50.672;6.076;2023-02-10T09:18:44;5.72;;;3.53;;
24137;SDS011;17947;50.672;6.076;2023-02-10T09:21:10;4.82;;;3.53;;
24137;SDS011;17947;50.672;6.076;2023-02-10T09:23:36;4.00;;;3.05;;
24137;SDS011;17947;50.672;6.076;2023-02-10T09:26:02;4.40;;;3.50;;
24137;SDS011;17947;50.672;6.076;2023-02-10T09:28:28;4.88;;;3.33;;
24137;SDS011;17947;50.672;6.076;2023-02-10T09:30:54;5.95;;;4.00;;
24137;SDS011;17947;50.672;6.076;2023-02-10T09:33:20;5.78;;;3.53;;
24137;SDS011;17947;50.672;6.076;2023-02-10T09:35:46;5.00;;;3.50;;
24137;SDS011;17947;50.672;6.076;2023-02-10T09:38:13;5.57;;;3.72;;
24137;SDS011;17947;50.672;6.076;2023-02-10T09:40:47;5.00;;;3.72;;
24137;SDS011;17947;50.672;6.076;2023-02-10T09:45:42;5.45;;;3.72;;
24137;SDS011;17947;50.672;6.076;2023-02-10T09:50:43;5.68;;;4.05;;
24137;SDS011;17947;50.672;6.076;2023-02-10T09:53:13;5.38;;;3.50;;
24137;SDS011;17947;50.672;6.076;2023-02-10T09:55:52;5.18;;;3.75;;
24137;SDS011;17947;50.672;6.076;2023-02-10T09:58:31;4.68;;;3.60;;
24137;SDS011;17947;50.672;6.076;2023-02-10T10:01:05;6.55;;;4.22;;
24137;SDS011;17947;50.672;6.076;2023-02-10T10:04:19;5.30;;;3.50;;
24137;SDS011;17947;50.672;6.076;2023-02-10T10:06:30;6.82;;;4.03;;
24137;SDS011;17947;50.672;6.076;2023-02-10T10:08:59;5.30;;;3.67;;
24137;SDS011;17947;50.672;6.076;2023-02-10T10:11:37;5.65;;;4.00;;
24137;SDS011;17947;50.672;6.076;2023-02-10T10:14:04;4.82;;;3.67;;
24137;SDS011;17947;50.672;6.076;2023-02-10T10:21:30;4.53;;;3.63;;
24137;SDS011;17947;50.672;6.076;2023-02-10T10:24:03;6.13;;;3.95;;
24137;SDS011;17947;50.672;6.076;2023-02-10T10:31:30;5.78;;;4.20;;
24137;SDS011;17947;50.672;6.076;2023-02-10T10:33:59;6.13;;;3.83;;
24137;SDS011;17947;50.672;6.076;2023-02-10T10:36:38;6.30;;;3.60;;
24137;SDS011;17947;50.672;6.076;2023-02-10T10:39:26;6.53;;;3.65;;
24137;SDS011;17947;50.672;6.076;2023-02-10T10:41:52;7.07;;;4.18;;
24137;SDS011;17947;50.672;6.076;2023-02-10T10:44:19;5.45;;;3.78;;
24137;SDS011;17947;50.672;6.076;2023-02-10T10:46:46;6.20;;;3.67;;
24137;SDS011;17947;50.672;6.076;2023-02-10T10:49:13;4.75;;;3.45;;
24137;SDS011;17947;50.672;6.076;2023-02-10T10:51:39;6.22;;;4.10;;
24137;SDS011;17947;50.672;6.076;2023-02-10T10:54:06;3.92;;;3.22;;
24137;SDS011;17947;50.672;6.076;2023-02-10T10:59:10;5.28;;;3.90;;
24137;SDS011;17947;50.672;6.076;2023-02-10T11:01:39;4.93;;;3.72;;
24137;SDS011;17947;50.672;6.076;2023-02-10T11:04:15;5.85;;;3.90;;
24137;SDS011;17947;50.672;6.076;2023-02-10T11:06:42;5.35;;;3.55;;
24137;SDS011;17947;50.672;6.076;2023-02-10T11:09:28;5.07;;;3.35;;
24137;SDS011;17947;50.672;6.076;2023-02-10T11:12:02;5.00;;;3.60;;
24137;SDS011;17947;50.672;6.076;2023-02-10T11:14:29;4.20;;;3.08;;
24137;SDS011;17947;50.672;6.076;2023-02-10T11:17:01;4.50;;;3.15;;
24137;SDS011;17947;50.672;6.076;2023-02-10T11:19:32;5.65;;;3.30;;
24137;SDS011;17947;50.672;6.076;2023-02-10T11:21:59;4.90;;;3.22;;
24137;SDS011;17947;50.672;6.076;2023-02-10T11:24:29;4.75;;;3.30;;
24137;SDS011;17947;50.672;6.076;2023-02-10T11:27:00;6.25;;;3.40;;
24137;SDS011;17947;50.672;6.076;2023-02-10T11:29:28;4.88;;;3.40;;
24137;SDS011;17947;50.672;6.076;2023-02-10T11:31:54;5.72;;;3.58;;
24137;SDS011;17947;50.672;6.076;2023-02-10T11:34:28;5.05;;;3.22;;
24137;SDS011;17947;50.672;6.076;2023-02-10T11:36:55;4.63;;;3.40;;
24137;SDS011;17947;50.672;6.076;2023-02-10T11:41:51;4.30;;;3.28;;
24137;SDS011;17947;50.672;6.076;2023-02-10T11:44:25;4.25;;;3.00;;
24137;SDS011;17947;50.672;6.076;2023-02-10T11:46:55;4.88;;;3.38;;
24137;SDS011;17947;50.672;6.076;2023-02-10T11:49:22;5.18;;;3.05;;
24137;SDS011;17947;50.672;6.076;2023-02-10T11:51:52;5.13;;;3.50;;
24137;SDS011;17947;50.672;6.076;2023-02-10T11:54:19;5.03;;;3.28;;
24137;SDS011;17947;50.672;6.076;2023-02-10T11:56:49;3.65;;;2.92;;
24137;SDS011;17947;50.672;6.076;2023-02-10T12:09:52;4.93;;;3.00;;
24137;SDS011;17947;50.672;6.076;2023-02-10T12:12:25;4.10;;;3.08;;
24137;SDS011;17947;50.672;6.076;2023-02-10T12:14:57;4.57;;;3.20;;
24137;SDS011;17947;50.672;6.076;2023-02-10T12:25:20;4.65;;;2.85;;
24137;SDS011;17947;50.672;6.076;2023-02-10T12:30:31;3.40;;;2.70;;
24137;SDS011;17947;50.672;6.076;2023-02-10T12:35:40;3.95;;;2.88;;
24137;SDS011;17947;50.672;6.076;2023-02-10T12:38:14;4.57;;;3.08;;
24137;SDS011;17947;50.672;6.076;2023-02-10T12:40:51;3.90;;;2.90;;
24137;SDS011;17947;50.672;6.076;2023-02-10T12:48:36;3.60;;;2.70;;
24137;SDS011;17947;50.672;6.076;2023-02-10T12:59:21;3.80;;;3.00;;
24137;SDS011;17947;50.672;6.076;2023-02-10T13:01:50;4.53;;;2.95;;
24137;SDS011;17947;50.672;6.076;2023-02-10T13:04:24;4.22;;;2.67;;
24137;SDS011;17947;50.672;6.076;2023-02-10T13:09:23;4.40;;;2.92;;
24137;SDS011;17947;50.672;6.076;2023-02-10T13:14:36;3.90;;;2.70;;
24137;SDS011;17947;50.672;6.076;2023-02-10T13:17:04;3.47;;;2.60;;
24137;SDS011;17947;50.672;6.076;2023-02-10T13:19:37;3.90;;;2.72;;
24137;SDS011;17947;50.672;6.076;2023-02-10T13:22:10;3.58;;;2.78;;
24137;SDS011;17947;50.672;6.076;2023-02-10T13:24:44;4.20;;;2.95;;
24137;SDS011;17947;50.672;6.076;2023-02-10T13:27:31;3.92;;;2.78;;
24137;SDS011;17947;50.672;6.076;2023-02-10T13:32:37;3.38;;;2.67;;
24137;SDS011;17947;50.672;6.076;2023-02-10T13:35:07;3.60;;;2.80;;
24137;SDS011;17947;50.672;6.076;2023-02-10T13:37:47;3.38;;;2.13;;
24137;SDS011;17947;50.672;6.076;2023-02-10T13:42:48;2.75;;;2.42;;
24137;SDS011;17947;50.672;6.076;2023-02-10T13:45:16;4.28;;;2.78;;
24137;SDS011;17947;50.672;6.076;2023-02-10T13:47:47;3.40;;;2.50;;
24137;SDS011;17947;50.672;6.076;2023-02-10T13:57:52;4.35;;;2.20;;
24137;SDS011;17947;50.672;6.076;2023-02-10T14:00:20;2.88;;;2.35;;
24137;SDS011;17947;50.672;6.076;2023-02-10T14:05:32;3.17;;;2.30;;
24137;SDS011;17947;50.672;6.076;2023-02-10T14:07:58;3.42;;;2.58;;
24137;SDS011;17947;50.672;6.076;2023-02-10T14:10:26;3.22;;;2.40;;
24137;SDS011;17947;50.672;6.076;2023-02-10T14:12:58;2.92;;;2.40;;
24137;SDS011;17947;50.672;6.076;2023-02-10T14:15:25;3.05;;;2.38;;
24137;SDS011;17947;50.672;6.076;2023-02-10T14:17:59;3.22;;;2.65;;
24137;SDS011;17947;50.672;6.076;2023-02-10T14:20:36;4.03;;;2.30;;
24137;SDS011;17947;50.672;6.076;2023-02-10T14:23:03;3.58;;;2.35;;
24137;SDS011;17947;50.672;6.076;2023-02-10T14:25:31;4.03;;;2.50;;
24137;SDS011;17947;50.672;6.076;2023-02-10T14:27:58;4.07;;;2.60;;
24137;SDS011;17947;50.672;6.076;2023-02-10T14:30:28;3.95;;;2.80;;
24137;SDS011;17947;50.672;6.076;2023-02-10T14:32:57;3.50;;;2.47;;
24137;SDS011;17947;50.672;6.076;2023-02-10T14:35:24;3.72;;;2.83;;
24137;SDS011;17947;50.672;6.076;2023-02-10T14:37:51;3.67;;;2.67;;
24137;SDS011;17947;50.672;6.076;2023-02-10T14:40:19;3.05;;;2.55;;
24137;SDS011;17947;50.672;6.076;2023-02-10T14:42:45;3.75;;;2.60;;
24137;SDS011;17947;50.672;6.076;2023-02-10T14:45:24;3.35;;;2.42;;
24137;SDS011;17947;50.672;6.076;2023-02-10T14:47:53;3.55;;;2.65;;
24137;SDS011;17947;50.672;6.076;2023-02-10T14:50:32;4.47;;;2.75;;
24137;SDS011;17947;50.672;6.076;2023-02-10T14:52:58;3.30;;;2.35;;
24137;SDS011;17947;50.672;6.076;2023-02-10T14:57:51;4.65;;;2.50;;
24137;SDS011;17947;50.672;6.076;2023-02-10T15:00:17;2.53;;;2.05;;
24137;SDS011;17947;50.672;6.076;2023-02-10T15:02:52;2.75;;;2.13;;
24137;SDS011;17947;50.672;6.076;2023-02-10T15:05:19;3.20;;;2.45;;
24137;SDS011;17947;50.672;6.076;2023-02-10T15:07:46;3.30;;;2.55;;
24137;SDS011;17947;50.672;6.076;2023-02-10T15:10:16;3.25;;;2.50;;
24137;SDS011;17947;50.672;6.076;2023-02-10T15:12:44;2.80;;;2.30;;
24137;SDS011;17947;50.672;6.076;2023-02-10T15:17:47;3.97;;;2.42;;
24137;SDS011;17947;50.672;6.076;2023-02-10T15:27:51;3.28;;;2.40;;
24137;SDS011;17947;50.672;6.076;2023-02-10T15:30:20;2.67;;;2.20;;
24137;SDS011;17947;50.672;6.076;2023-02-10T15:32:48;2.65;;;2.13;;
24137;SDS011;17947;50.672;6.076;2023-02-10T15:35:14;2.97;;;2.00;;
24137;SDS011;17947;50.672;6.076;2023-02-10T15:37:40;3.33;;;2.40;;
24137;SDS011;17947;50.672;6.076;2023-02-10T15:40:20;2.40;;;2.20;;
24137;SDS011;17947;50.672;6.076;2023-02-10T15:43:47;4.07;;;2.75;;
24137;SDS011;17947;50.672;6.076;2023-02-10T15:45:41;3.35;;;2.28;;
24137;SDS011;17947;50.672;6.076;2023-02-10T15:48:08;3.28;;;2.40;;
24137;SDS011;17947;50.672;6.076;2023-02-10T15:50:34;2.85;;;2.10;;
24137;SDS011;17947;50.672;6.076;2023-02-10T15:53:01;2.72;;;2.05;;
24137;SDS011;17947;50.672;6.076;2023-02-10T15:57:55;2.90;;;2.00;;
24137;SDS011;17947;50.672;6.076;2023-02-10T16:00:28;3.45;;;2.47;;
24137;SDS011;17947;50.672;6.076;2023-02-10T16:02:55;2.95;;;2.10;;
24137;SDS011;17947;50.672;6.076;2023-02-10T16:05:21;3.92;;;2.30;;
24137;SDS011;17947;50.672;6.076;2023-02-10T16:07:48;3.05;;;2.25;;
24137;SDS011;17947;50.672;6.076;2023-02-10T16:10:24;3.53;;;2.45;;
24137;SDS011;17947;50.672;6.076;2023-02-10T16:12:50;2.75;;;2.20;;
24137;SDS011;17947;50.672;6.076;2023-02-10T16:15:18;3.13;;;2.20;;
24137;SDS011;17947;50.672;6.076;2023-02-10T16:17:44;3.22;;;2.30;;
24137;SDS011;17947;50.672;6.076;2023-02-10T16:20:19;2.67;;;2.03;;
24137;SDS011;17947;50.672;6.076;2023-02-10T16:22:45;3.67;;;2.20;;
24137;SDS011;17947;50.672;6.076;2023-02-10T16:25:12;3.80;;;2.42;;
24137;SDS011;17947;50.672;6.076;2023-02-10T16:27:38;3.35;;;2.40;;
24137;SDS011;17947;50.672;6.076;2023-02-10T16:30:04;2.97;;;2.38;;
24137;SDS011;17947;50.672;6.076;2023-02-10T16:32:31;2.67;;;2.20;;
24137;SDS011;17947;50.672;6.076;2023-02-10T16:34:57;3.75;;;2.55;;
24137;SDS011;17947;50.672;6.076;2023-02-10T16:37:23;3.55;;;2.65;;
24137;SDS011;17947;50.672;6.076;2023-02-10T16:39:49;4.15;;;2.80;;
24137;SDS011;17947;50.672;6.076;2023-02-10T16:42:15;3.05;;;2.28;;
24137;SDS011;17947;50.672;6.076;2023-02-10T16:44:41;4.07;;;2.60;;
24137;SDS011;17947;50.672;6.076;2023-02-10T16:47:09;4.35;;;2.65;;
24137;SDS011;17947;50.672;6.076;2023-02-10T16:49:38;5.43;;;2.88;;